Time;durP1;ratioP1;P1;durP2;ratioP2;P2;SDS_P1;SDS_P2;PMS_P1;PMS_P2;Temp;Humidity;BMP_temperature;BMP_pressure;BME280_temperature;BME280_humidity;BME280_pressure;Samples;Min_cycle;Max_cycle;Signal;HPM_P1;HPM_P2
2022/05/04 00:06:39;;;;;;;42.30;24.20;;;;;;;8.99;61.02;98634.34;432526;1268;108898;-44
2022/05/04 00:16:46;;;;;;;26.90;17.10;;;;;;;8.71;61.41;98629.27;432468;1270;98085;-45
2022/05/04 00:26:53;;;;;;;25.00;14.40;;;;;;;8.72;61.53;98633.64;432342;1270;112398;-46
2022/05/04 00:37:01;;;;;;;27.70;16.10;;;;;;;8.89;61.81;98636.27;432395;1270;108292;-43
2022/05/04 00:47:10;;;;;;;35.20;18.70;;;;;;;9.00;62.04;98642.29;432544;1270;99292;-43
2022/05/04 01:07:27;;;;;;;37.90;23.40;;;;;;;9.06;62.25;98648.44;432537;1270;98036;-46
2022/05/04 01:17:34;;;;;;;43.90;26.40;;;;;;;8.73;61.99;98660.96;432543;1270;111581;-42
2022/05/04 01:27:41;;;;;;;60.60;31.80;;;;;;;8.16;61.97;98663.70;432461;1270;108720;-43
2022/05/04 01:37:48;;;;;;;39.00;24.20;;;;;;;7.88;62.82;98662.14;433314;1257;99267;-45
2022/05/04 01:47:56;;;;;;;38.70;23.80;;;;;;;7.96;63.31;98669.41;432460;1270;108839;-44
2022/05/04 01:58:04;;;;;;;42.70;22.90;;;;;;;7.98;63.48;98675.55;432530;1270;99251;-43
2022/05/04 02:08:12;;;;;;;55.20;29.70;;;;;;;7.88;63.63;98662.78;432533;1270;112467;-45
2022/05/04 02:18:19;;;;;;;54.60;30.30;;;;;;;7.90;64.15;98663.30;432468;1270;107899;-41
2022/05/04 02:28:26;;;;;;;51.10;30.70;;;;;;;7.87;64.43;98665.10;432513;1270;98516;-43
2022/05/04 02:38:33;;;;;;;39.00;24.00;;;;;;;7.82;64.58;98666.14;432538;1271;109546;-44
2022/05/04 02:48:41;;;;;;;35.90;22.10;;;;;;;7.83;64.60;98675.94;432482;1270;99362;-45
2022/05/04 03:08:56;;;;;;;57.40;28.70;;;;;;;7.70;65.20;98670.69;432669;1270;108784;-44
2022/05/04 03:19:03;;;;;;;55.60;32.80;;;;;;;7.68;65.27;98669.77;432484;1270;99277;-46
2022/05/04 03:29:10;;;;;;;58.20;31.40;;;;;;;7.63;65.44;98675.95;432531;1270;109444;-42
2022/05/04 03:39:18;;;;;;;38.80;23.50;;;;;;;7.38;65.40;98700.16;432462;1270;99309;-41
2022/05/04 03:49:26;;;;;;;35.90;22.40;;;;;;;7.43;66.01;98719.73;432541;1270;112425;-46
2022/05/04 03:59:33;;;;;;;54.70;29.20;;;;;;;7.60;66.30;98710.48;432433;1270;108779;-45
2022/05/04 04:09:39;;;;;;;43.40;26.20;;;;;;;7.83;66.95;98718.49;432471;1270;98297;-43
2022/05/04 04:21:50;;;;;;;40.30;25.00;;;;;;;8.10;67.35;98730.51;432415;1270;108784;-44
2022/05/04 04:30:15;;;;;;;64.40;38.70;;;;;;;8.22;67.62;98718.08;432555;1270;99375;-43
2022/05/04 04:40:22;;;;;;;60.10;35.60;;;;;;;8.32;67.80;98724.33;432532;1270;112384;-41
2022/05/04 04:50:28;;;;;;;38.50;24.10;;;;;;;8.26;67.89;98727.91;432318;1270;108873;-43
2022/05/04 05:10:42;;;;;;;40.80;25.20;;;;;;;8.89;68.34;98744.58;432490;1270;108747;-46
2022/05/04 05:20:48;;;;;;;48.50;29.40;;;;;;;9.14;68.51;98751.96;432440;1270;98035;-42
2022/05/04 05:31:03;;;;;;;47.40;28.60;;;;;;;9.31;68.56;98758.02;432430;1270;112384;-45
2022/05/04 05:41:10;;;;;;;41.00;25.00;;;;;;;9.58;68.32;98748.92;432475;1270;108771;-44
2022/05/04 05:51:17;;;;;;;34.40;21.70;;;;;;;10.22;68.14;98743.34;432537;1270;99142;-45
2022/05/04 06:01:24;;;;;;;36.10;20.90;;;;;;;11.03;67.51;98749.17;432343;1270;108638;-46
2022/05/04 06:11:34;;;;;;;31.70;19.70;;;;;;;11.35;67.20;98756.39;432630;1270;99286;-45
2022/05/04 06:21:39;;;;;;;;;;;;;;;11.40;66.83;98766.04;432179;1270;666559;-42
2022/05/04 06:42:11;;;;;;;27.00;17.60;;;;;;;11.90;66.06;98771.63;432455;1270;98217;-43
2022/05/04 06:52:19;;;;;;;24.40;14.00;;;;;;;12.04;65.49;98782.23;432411;1270;109319;-44
2022/05/04 07:02:26;;;;;;;38.00;17.40;;;;;;;12.22;65.10;98785.09;432535;1270;99296;-46
2022/05/04 07:12:33;;;;;;;20.10;14.30;;;;;;;12.72;64.64;98788.89;432594;1270;112385;-44
2022/05/04 07:22:40;;;;;;;23.10;14.60;;;;;;;13.16;63.81;98791.59;432475;1270;108636;-42
2022/05/04 07:32:48;;;;;;;24.10;15.00;;;;;;;13.36;62.89;98789.57;432599;1270;99328;-41
2022/05/04 07:42:55;;;;;;;16.00;11.50;;;;;;;13.63;62.20;98792.09;432677;1270;108900;-45
2022/05/04 08:13:32;;;;;;;9.80;8.50;;;;;;;15.68;56.83;98802.81;432582;1270;108799;-45
2022/05/04 08:23:39;;;;;;;10.40;8.00;;;;;;;16.50;55.86;98806.77;432547;1270;98272;-42
2022/05/04 08:33:47;;;;;;;9.30;7.00;;;;;;;17.49;54.73;98815.73;432500;1270;108809;-44
2022/05/04 08:43:54;;;;;;;9.50;7.10;;;;;;;17.78;52.29;98817.83;432593;1270;99292;-42
2022/05/04 08:54:01;;;;;;;8.10;7.20;;;;;;;18.24;51.04;98812.72;432532;1270;112377;-45
2022/05/04 09:04:09;;;;;;;10.70;6.50;;;;;;;18.30;47.72;98815.75;432271;1270;109345;-47
2022/05/04 09:14:20;;;;;;;9.00;6.90;;;;;;;18.62;48.44;98811.23;432433;1270;98130;-43
2022/05/04 09:24:28;;;;;;;8.00;6.90;;;;;;;18.97;47.20;98806.35;432573;1270;107896;-47
2022/05/04 09:34:34;;;;;;;;;;;;;;;19.31;46.17;98803.34;432584;1270;99270;-45
2022/05/04 10:15:28;;;;;;;9.20;5.30;;;;;;;19.31;41.81;98783.29;432644;1270;108931;-44
2022/05/04 10:25:36;;;;;;;10.20;5.30;;;;;;;19.32;40.91;98771.97;432551;1270;98429;-45
2022/05/04 10:45:54;;;;;;;10.80;4.60;;;;;;;19.77;38.83;98755.70;432553;1270;108894;-41
2022/05/04 10:56:03;;;;;;;6.50;4.20;;;;;;;20.09;38.64;98754.23;432529;1270;99368;-46
2022/05/04 11:06:22;;;;;;;9.40;5.00;;;;;;;19.88;37.71;98753.48;432572;1270;109238;-45
2022/05/04 11:16:29;;;;;;;5.70;5.20;;;;;;;19.82;37.13;98750.85;432592;1270;99273;-45
2022/05/04 11:26:37;;;;;;;5.90;4.80;;;;;;;19.86;37.62;98742.11;432630;1270;112397;-48
2022/05/04 11:36:43;;;;;;;5.80;4.90;;;;;;;20.00;37.25;98741.30;432634;1270;108854;-42
2022/05/04 11:46:51;;;;;;;6.30;5.20;;;;;;;19.57;36.70;98740.98;432619;1270;98055;-43
2022/05/04 11:56:58;;;;;;;12.30;5.40;;;;;;;19.61;37.59;98731.52;432754;1270;109550;-43
2022/05/04 12:07:03;;;;;;;10.50;5.70;;;;;;;19.77;36.85;98727.73;432592;1270;99250;-44
2022/05/04 12:17:10;;;;;;;8.40;4.90;;;;;;;20.42;37.30;98712.64;432532;1271;110949;-42
2022/05/04 12:27:17;;;;;;;32.30;6.40;;;;;;;20.82;36.89;98707.40;432736;1270;109389;-46
2022/05/04 12:37:30;;;;;;;15.70;5.60;;;;;;;21.19;36.63;98701.00;432633;1270;99253;-42
2022/05/04 12:47:38;;;;;;;8.80;5.20;;;;;;;21.30;36.16;98695.05;432451;1271;108847;-40
2022/05/04 12:57:43;;;;;;;20.70;5.80;;;;;;;21.45;35.28;98682.02;432515;1271;99260;-44
2022/05/04 13:07:51;;;;;;;5.50;4.30;;;;;;;21.29;35.49;98680.82;432457;1270;112488;-42
2022/05/04 13:17:58;;;;;;;9.60;5.20;;;;;;;20.93;35.37;98680.54;432461;1270;109347;-46
2022/05/04 13:28:06;;;;;;;6.20;4.30;;;;;;;20.67;35.63;98679.92;432625;1271;99283;-43
2022/05/04 13:38:13;;;;;;;5.40;4.80;;;;;;;20.13;34.68;98683.67;432553;1270;108794;-44
2022/05/04 13:48:20;;;;;;;9.10;5.30;;;;;;;19.85;35.09;98674.35;432629;1271;98742;-42
2022/05/04 13:58:28;;;;;;;8.50;5.40;;;;;;;19.52;35.37;98671.75;432431;1271;112387;-46
2022/05/04 14:08:34;;;;;;;7.40;5.80;;;;;;;19.43;35.87;98664.45;432559;1271;108518;-42
2022/05/04 14:18:40;;;;;;;6.00;5.40;;;;;;;19.67;36.00;98664.44;432567;1270;99316;-43
2022/05/04 14:28:48;;;;;;;7.80;5.80;;;;;;;19.89;35.51;98660.77;432502;1270;107855;-45
2022/05/04 14:38:55;;;;;;;8.50;5.30;;;;;;;19.93;35.35;98658.13;432520;1270;99283;-46
2022/05/04 14:49:02;;;;;;;6.70;6.10;;;;;;;19.74;35.03;98660.00;432549;1270;112373;-43
2022/05/04 14:59:09;;;;;;;7.90;5.70;;;;;;;19.57;35.58;98651.31;432469;1270;108922;-45
2022/05/04 15:09:16;;;;;;;7.70;5.30;;;;;;;19.97;35.90;98640.90;432617;1270;99134;-43
2022/05/04 15:19:24;;;;;;;6.40;5.70;;;;;;;20.02;35.43;98640.84;432497;1270;109206;-44
2022/05/04 15:29:31;;;;;;;8.20;5.70;;;;;;;19.68;35.38;98643.73;432657;1270;99356;-46
2022/05/04 15:39:38;;;;;;;9.60;5.00;;;;;;;19.71;35.40;98642.46;432620;1270;112870;-46
2022/05/04 15:49:45;;;;;;;8.20;4.40;;;;;;;19.51;35.40;98643.59;432562;1270;109391;-43
2022/05/04 15:59:53;;;;;;;7.70;5.10;;;;;;;19.07;36.00;98642.59;432552;1270;99283;-42
2022/05/04 16:10:00;;;;;;;6.50;5.20;;;;;;;18.90;36.25;98643.10;432462;1270;109558;-45
2022/05/04 16:30:32;;;;;;;5.00;3.40;;;;;;;18.60;36.82;98643.45;432647;1270;112456;-46
2022/05/04 16:40:40;;;;;;;4.90;4.00;;;;;;;18.43;37.20;98645.36;432331;1270;108832;-47
2022/05/04 16:50:47;;;;;;;6.80;3.90;;;;;;;18.29;37.63;98641.03;432561;1270;98023;-42
2022/05/04 17:00:55;;;;;;;7.10;4.50;;;;;;;18.11;37.63;98641.25;432547;1270;109272;-47
2022/05/04 17:21:09;;;;;;;8.10;5.10;;;;;;;17.86;38.11;98647.89;432451;1270;112449;-45
2022/05/04 17:31:16;;;;;;;6.20;5.10;;;;;;;17.57;38.35;98653.31;432384;1270;108775;-42
2022/05/04 17:41:24;;;;;;;6.30;4.40;;;;;;;17.32;38.86;98666.28;432701;1270;97973;-46
2022/05/04 17:51:31;;;;;;;11.20;4.80;;;;;;;17.13;39.27;98671.68;432372;1270;108855;-48
2022/05/04 18:12:04;;;;;;;10.50;5.40;;;;;;;16.62;39.84;98681.12;432655;1270;112509;-45
2022/05/04 18:22:11;;;;;;;10.00;7.80;;;;;;;16.31;40.38;98688.36;432277;1270;319102;-45
2022/05/04 18:32:18;;;;;;;12.10;7.90;;;;;;;16.00;40.91;98695.98;432488;1270;99264;-43
2022/05/04 18:42:25;;;;;;;13.70;8.50;;;;;;;15.63;41.76;98709.92;432435;1270;109130;-44
2022/05/04 18:52:33;;;;;;;17.10;10.70;;;;;;;15.28;42.18;98722.26;432533;1273;99191;-46
2022/05/04 19:02:41;;;;;;;21.40;12.70;;;;;;;14.92;43.08;98725.00;432507;1270;112468;-45
2022/05/04 19:12:47;;;;;;;11.20;8.70;;;;;;;14.59;43.82;98729.64;432508;1270;108860;-43
2022/05/04 19:22:54;;;;;;;13.60;9.20;;;;;;;14.50;44.42;98738.23;432605;1270;99276;-45
2022/05/04 19:33:00;;;;;;;14.30;9.50;;;;;;;14.45;44.94;98743.71;432541;1270;108870;-42
2022/05/04 19:43:06;;;;;;;22.20;12.10;;;;;;;14.38;45.37;98739.24;432535;1270;98432;-46
2022/05/04 19:53:14;;;;;;;23.40;10.90;;;;;;;14.34;45.64;98739.52;432537;1270;112395;-44
2022/05/04 20:03:23;;;;;;;16.70;8.60;;;;;;;14.30;45.94;98744.65;432434;1270;108880;-42
2022/05/04 20:13:30;;;;;;;11.10;7.40;;;;;;;14.18;46.13;98746.38;432666;1267;99252;-45
2022/05/04 20:23:37;;;;;;;17.60;10.00;;;;;;;14.08;46.34;98751.86;432661;1270;108795;-44
2022/05/04 20:33:47;;;;;;;19.10;10.50;;;;;;;13.95;46.54;98758.98;432488;1270;98716;-43
2022/05/04 20:43:55;;;;;;;19.40;10.50;;;;;;;13.80;47.03;98761.86;432564;1270;112760;-43
2022/05/04 20:54:02;;;;;;;16.60;9.20;;;;;;;13.76;47.17;98764.52;432443;1269;108809;-42
2022/05/04 21:14:16;;;;;;;16.00;11.40;;;;;;;13.50;47.80;98779.04;432501;1270;108938;-45
2022/05/04 21:24:23;;;;;;;21.70;10.70;;;;;;;13.30;48.14;98786.25;432605;1270;98336;-46
2022/05/04 21:34:30;;;;;;;15.40;9.80;;;;;;;13.13;48.50;98791.66;432697;1270;112525;-41
2022/05/04 21:44:37;;;;;;;20.20;12.80;;;;;;;12.90;48.79;98795.94;432487;1270;108948;-44
2022/05/04 21:54:51;;;;;;;19.70;13.70;;;;;;;12.58;49.21;98803.60;432527;1270;98069;-45
2022/05/04 22:04:58;;;;;;;21.10;12.60;;;;;;;12.27;49.86;98801.45;432639;1270;108755;-43
2022/05/04 22:15:04;;;;;;;22.50;13.40;;;;;;;12.15;50.17;98805.98;432520;1270;99283;-45
2022/05/04 22:25:12;;;;;;;21.70;12.00;;;;;;;11.87;50.79;98802.07;432536;1270;112871;-46
2022/05/04 22:35:19;;;;;;;29.80;12.40;;;;;;;11.55;51.24;98804.50;432552;1270;109500;-45
2022/05/04 22:45:27;;;;;;;16.50;11.60;;;;;;;11.21;51.87;98807.26;432491;1270;98831;-45
2022/05/04 22:55:34;;;;;;;15.00;9.70;;;;;;;11.00;52.35;98806.66;432480;1269;109236;-45
2022/05/04 23:05:41;;;;;;;23.00;11.70;;;;;;;10.87;52.92;98807.88;432560;1270;99277;-42
2022/05/04 23:26:13;;;;;;;15.90;10.00;;;;;;;10.60;53.58;98806.77;432389;1273;109608;-43
2022/05/04 23:46:44;;;;;;;18.40;8.90;;;;;;;10.49;54.05;98797.45;432246;1273;108847;-43
2022/05/04 23:56:52;;;;;;;17.00;9.80;;;;;;;10.59;54.30;98799.74;432463;1273;98861;-46
